Time;durP1;ratioP1;P1;durP2;ratioP2;P2;SDS_P1;SDS_P2;PMS_P1;PMS_P2;Temp;Humidity;BMP_temperature;BMP_pressure;BME280_temperature;BME280_humidity;BME280_pressure;Samples;Min_cycle;Max_cycle;Signal;HPM_P1;HPM_P2
2022/05/11 00:01:29;;;;;;;1.60;0.80;;;22.40;85.40;;;;;;6244984;22;19997;-54
2022/05/11 00:03:59;;;;;;;1.42;0.77;;;22.10;85.20;;;;;;6254977;23;20008;-53
2022/05/11 00:06:26;;;;;;;4.25;0.90;;;22.30;85.40;;;;;;6255127;23;20371;-54
2022/05/11 00:08:53;;;;;;;3.42;1.15;;;22.50;85.60;;;;;;6255116;23;20003;-54
2022/05/11 00:11:19;;;;;;;1.65;0.65;;;22.50;85.60;;;;;;6255077;23;20012;-54
2022/05/11 00:13:45;;;;;;;1.95;1.15;;;22.40;85.50;;;;;;6254799;23;20019;-55
2022/05/11 00:16:11;;;;;;;1.65;0.95;;;22.00;85.40;;;;;;6255015;23;20008;-55
2022/05/11 00:18:38;;;;;;;2.28;0.95;;;22.10;85.50;;;;;;6255062;23;20007;-54
2022/05/11 00:21:04;;;;;;;1.65;0.80;;;22.30;52.50;;;;;;6255132;23;20447;-54
2022/05/11 00:23:30;;;;;;;2.58;0.75;;;;;;;;;;6255178;23;20001;-53
2022/05/11 00:25:56;;;;;;;1.65;0.90;;;;;;;;;;6255044;23;20378;-54
2022/05/11 00:28:22;;;;;;;1.98;1.17;;;;;;;;;;6254980;23;20000;-54
2022/05/11 00:30:48;;;;;;;1.83;0.65;;;;;;;;;;6251799;23;20094;-54
2022/05/11 00:33:15;;;;;;;2.63;1.00;;;22.20;54.40;;;;;;6254963;23;20003;-54
2022/05/11 00:35:43;;;;;;;2.05;0.80;;;22.40;85.80;;;;;;6255013;23;20034;-53
2022/05/11 00:38:09;;;;;;;1.17;0.73;;;22.30;85.80;;;;;;6254942;23;19996;-54
2022/05/11 00:40:41;;;;;;;2.45;0.98;;;22.30;86.00;;;;;;6254985;23;20000;-53
2022/05/11 00:43:08;;;;;;;3.05;1.20;;;22.30;52.60;;;;;;6245100;23;20049;-54
2022/05/11 00:45:34;;;;;;;1.67;0.80;;;;;;;;;;6245066;23;20000;-54
2022/05/11 00:49:33;;;;;;;1.25;0.77;;;22.20;52.80;;;;;;6255000;23;20015;-53
2022/05/11 00:50:50;;;;;;;1.25;0.70;;;;;;;;;;6244612;23;20022;-54
2022/05/11 00:53:17;;;;;;;1.73;0.70;;;22.20;52.80;;;;;;6254815;23;19998;-54
2022/05/11 00:55:49;;;;;;;4.30;0.80;;;22.30;63.50;;;;;;6254844;23;20019;-52
2022/05/11 00:58:22;;;;;;;3.22;1.00;;;22.20;85.80;;;;;;6254922;23;20075;-54
2022/05/11 01:00:48;;;;;;;2.05;0.82;;;21.70;85.70;;;;;;6254884;23;20000;-54
2022/05/11 01:03:23;;;;;;;1.77;0.73;;;22.40;85.90;;;;;;6254479;22;20595;-53
2022/05/11 01:05:49;;;;;;;2.28;0.75;;;22.40;86.10;;;;;;6254980;23;20003;-55
2022/05/11 01:08:18;;;;;;;0.68;0.55;;;22.30;52.80;;;;;;6254846;23;20075;-52
2022/05/11 01:10:44;;;;;;;1.00;0.80;;;;;;;;;;6254737;23;20048;-52
2022/05/11 01:13:13;;;;;;;1.35;0.95;;;22.10;52.80;;;;;;6244893;23;20000;-54
2022/05/11 01:15:40;;;;;;;1.65;0.90;;;22.10;85.90;;;;;;6254816;23;20058;-54
2022/05/11 01:18:08;;;;;;;0.90;0.60;;;21.80;85.60;;;;;;6254761;23;19992;-55
2022/05/11 01:20:36;;;;;;;1.58;0.80;;;22.20;85.80;;;;;;6254695;23;20443;-55
2022/05/11 01:23:20;;;;;;;2.92;0.93;;;21.80;85.50;;;;;;6244893;23;20007;-54
2022/05/11 01:25:46;;;;;;;2.80;0.77;;;;;;;;;;6255491;23;20370;-53
2022/05/11 01:28:15;;;;;;;1.73;0.77;;;21.90;55.80;;;;;;6256527;23;20489;-53
2022/05/11 01:30:48;;;;;;;0.90;0.55;;;22.30;86.10;;;;;;6256432;23;20004;-55
2022/05/11 01:33:18;;;;;;;2.95;0.85;;;22.00;61.10;;;;;;6256529;23;20031;-54
2022/05/11 01:36:13;;;;;;;1.60;0.68;;;22.20;85.80;;;;;;6256538;23;20015;-55
2022/05/11 01:38:42;;;;;;;2.17;0.82;;;21.90;74.90;;;;;;6256822;23;20068;-54
2022/05/11 01:41:16;;;;;;;2.05;0.77;;;22.10;52.70;;;;;;6256516;23;19996;-55
2022/05/11 01:43:41;;;;;;;1.42;0.60;;;22.20;85.80;;;;;;6256622;23;19992;-53
2022/05/11 01:46:08;;;;;;;1.38;0.60;;;22.30;85.80;;;;;;6246574;23;20023;-53
2022/05/11 01:48:34;;;;;;;3.15;0.77;;;21.70;85.40;;;;;;6246191;23;20073;-54
2022/05/11 01:51:00;;;;;;;1.95;0.85;;;21.80;85.50;;;;;;6256237;23;20011;-54
2022/05/11 01:53:26;;;;;;;1.25;0.88;;;22.00;85.70;;;;;;6256360;23;19996;-54
2022/05/11 01:55:52;;;;;;;1.95;0.85;;;22.10;52.00;;;;;;6256312;23;20000;-51
2022/05/11 01:58:18;;;;;;;2.25;0.80;;;;;;;;;;6256357;23;20007;-54
2022/05/11 02:00:46;;;;;;;1.70;0.70;;;22.00;85.50;;;;;;6256305;23;20016;-55
2022/05/11 02:03:12;;;;;;;2.25;0.88;;;;;;;;;;6255926;22;19996;-54
2022/05/11 02:08:23;;;;;;;2.35;0.85;;;22.00;63.40;;;;;;6256253;23;20454;-53
2022/05/11 02:10:48;;;;;;;1.17;0.55;;;22.10;85.40;;;;;;6256015;23;20004;-52
2022/05/11 02:13:14;;;;;;;3.92;0.85;;;22.20;60.40;;;;;;6256082;23;20003;-53
2022/05/11 02:15:41;;;;;;;1.45;0.60;;;21.30;52.20;;;;;;6256078;23;20027;-53
2022/05/11 02:18:07;;;;;;;0.85;0.60;;;22.20;85.40;;;;;;6256097;23;19992;-53
2022/05/11 02:20:33;;;;;;;1.17;0.88;;;22.50;52.60;;;;;;6256078;23;20058;-54
2022/05/11 02:22:59;;;;;;;1.15;0.63;;;22.20;85.60;;;;;;6256099;23;20420;-55
2022/05/11 02:25:25;;;;;;;0.82;0.57;;;22.30;85.70;;;;;;6256040;23;20000;-54
2022/05/11 02:27:52;;;;;;;1.45;0.60;;;22.10;85.60;;;;;;6246226;23;20420;-51
2022/05/11 02:30:21;;;;;;;2.22;0.73;;;21.70;85.40;;;;;;6255914;23;20115;-54
2022/05/11 02:32:46;;;;;;;0.90;0.63;;;21.90;82.50;;;;;;6255974;23;20000;-54
2022/05/11 02:35:12;;;;;;;1.25;0.63;;;;;;;;;;6255996;23;20320;-54
2022/05/11 02:37:50;;;;;;;1.55;0.60;;;21.90;52.40;;;;;;6255758;23;20008;-54
2022/05/11 02:40:19;;;;;;;1.50;0.73;;;21.30;55.80;;;;;;6246211;23;20403;-54
2022/05/11 02:42:45;;;;;;;1.88;0.90;;;22.20;85.70;;;;;;6246020;23;20000;-55
2022/05/11 02:45:12;;;;;;;2.05;0.75;;;21.90;84.70;;;;;;6255827;23;20004;-53
2022/05/11 02:47:38;;;;;;;2.10;0.88;;;22.20;68.80;;;;;;6255835;23;19996;-54
2022/05/11 02:50:05;;;;;;;1.38;0.65;;;22.00;85.70;;;;;;6255686;23;20083;-54
2022/05/11 02:52:33;;;;;;;0.93;0.50;;;22.20;85.60;;;;;;6255768;23;20074;-54
2022/05/11 02:54:58;;;;;;;2.30;0.88;;;21.50;84.90;;;;;;6255745;23;19992;-53
2022/05/11 02:57:24;;;;;;;1.48;0.60;;;21.80;85.50;;;;;;6245922;23;20058;-54
2022/05/11 02:59:50;;;;;;;1.50;0.63;;;21.90;85.30;;;;;;6255721;23;20007;-54
2022/05/11 03:02:20;;;;;;;2.20;0.63;;;21.90;85.80;;;;;;6255589;22;20320;-54
2022/05/11 03:04:50;;;;;;;0.93;0.70;;;22.00;52.20;;;;;;6245235;23;20019;-55
2022/05/11 03:07:15;;;;;;;1.40;0.80;;;21.80;85.70;;;;;;6255681;23;20003;-54
2022/05/11 03:09:41;;;;;;;0.82;0.50;;;21.90;85.80;;;;;;6255536;23;20075;-54
2022/05/11 03:12:08;;;;;;;3.17;0.60;;;22.00;85.90;;;;;;6255601;23;20455;-54
2022/05/11 03:14:33;;;;;;;1.10;0.40;;;22.00;86.10;;;;;;6245378;23;20000;-54
2022/05/11 03:16:59;;;;;;;2.40;0.80;;;21.80;86.00;;;;;;6255683;23;19996;-54
2022/05/11 03:19:25;;;;;;;1.70;0.60;;;21.70;85.60;;;;;;6245315;23;20439;-54
2022/05/11 03:21:52;;;;;;;1.52;0.60;;;21.50;85.70;;;;;;6245252;23;19996;-54
2022/05/11 03:24:18;;;;;;;1.92;0.60;;;22.10;86.00;;;;;;6255463;23;20377;-54
2022/05/11 03:26:43;;;;;;;1.73;0.65;;;21.70;85.70;;;;;;6255506;23;20031;-54
2022/05/11 03:29:10;;;;;;;1.52;0.60;;;22.00;86.00;;;;;;6255392;23;19992;-53
2022/05/11 03:31:37;;;;;;;1.65;0.50;;;21.90;86.00;;;;;;6245404;23;20085;-54
2022/05/11 03:36:48;;;;;;;0.88;0.50;;;;;;;;;;6245308;23;20069;-50
2022/05/11 03:39:18;;;;;;;0.77;0.45;;;21.90;52.50;;;;;;6255185;23;20087;-55
2022/05/11 03:41:48;;;;;;;0.73;0.60;;;21.90;86.30;;;;;;6255280;23;20046;-54
2022/05/11 03:44:13;;;;;;;0.82;0.57;;;21.70;85.90;;;;;;6255600;23;20251;-54
2022/05/11 03:46:39;;;;;;;1.45;0.47;;;22.10;86.30;;;;;;6255232;23;20454;-54
2022/05/11 03:49:04;;;;;;;1.08;0.55;;;21.80;86.00;;;;;;6254859;23;19999;-54
2022/05/11 03:51:30;;;;;;;1.05;0.68;;;22.30;67.90;;;;;;6255273;23;20016;-54
2022/05/11 03:53:56;;;;;;;2.60;0.90;;;;;;;;;;6255295;23;19996;-51
2022/05/11 03:56:22;;;;;;;1.70;0.77;;;;;;;;;;6255178;23;20072;-51
2022/05/11 03:58:48;;;;;;;2.17;0.60;;;;;;;;;;6255203;23;20099;-49
2022/05/11 04:01:14;;;;;;;2.85;0.80;;;21.80;52.00;;;;;;6255078;22;20035;-50
2022/05/11 04:03:41;;;;;;;2.30;0.75;;;21.90;86.00;;;;;;6254986;23;20013;-50
2022/05/11 04:06:06;;;;;;;1.90;0.50;;;21.50;77.00;;;;;;6245137;23;20010;-49
2022/05/11 04:08:33;;;;;;;2.15;0.50;;;;;;;;;;6255131;23;20059;-47
2022/05/11 04:10:58;;;;;;;2.17;0.70;;;21.90;69.70;;;;;;6245229;23;20111;-48
2022/05/11 04:13:24;;;;;;;2.58;0.80;;;21.10;59.50;;;;;;6245286;23;20000;-47
2022/05/11 04:15:51;;;;;;;1.38;0.60;;;21.90;60.60;;;;;;6255012;23;20003;-47
2022/05/11 04:18:18;;;;;;;1.75;0.70;;;22.00;86.60;;;;;;6245208;23;20071;-46
2022/05/11 04:20:44;;;;;;;1.67;0.60;;;22.00;86.50;;;;;;6245181;23;20000;-46
2022/05/11 04:23:09;;;;;;;1.80;0.65;;;21.60;86.40;;;;;;6255037;23;20003;-47
2022/05/11 04:25:35;;;;;;;2.00;0.70;;;21.80;86.50;;;;;;6255015;23;20000;-48
2022/05/11 04:28:04;;;;;;;3.05;0.50;;;21.60;86.30;;;;;;6255020;23;19992;-47
2022/05/11 04:30:31;;;;;;;1.20;0.57;;;21.70;86.50;;;;;;6255031;23;20091;-54
2022/05/11 04:32:58;;;;;;;2.08;0.60;;;21.80;72.00;;;;;;6244774;23;20068;-53
2022/05/11 04:35:30;;;;;;;1.50;0.70;;;21.80;87.20;;;;;;6255102;23;20427;-55
2022/05/11 04:37:59;;;;;;;2.17;0.77;;;21.80;87.20;;;;;;6244881;23;19992;-54
2022/05/11 04:40:27;;;;;;;0.87;0.33;;;21.80;87.00;;;;;;6255003;23;20008;-54
2022/05/11 04:42:53;;;;;;;1.40;0.50;;;21.80;87.00;;;;;;6255000;23;20243;-54
2022/05/11 04:45:19;;;;;;;1.35;0.70;;;21.90;87.00;;;;;;6254924;23;20045;-53
2022/05/11 04:47:45;;;;;;;2.45;0.60;;;20.30;52.20;;;;;;6255086;23;20000;-47
2022/05/11 04:50:13;;;;;;;1.77;0.57;;;21.60;86.90;;;;;;6254774;23;20008;-47
2022/05/11 04:52:39;;;;;;;1.50;0.63;;;21.80;86.80;;;;;;6254944;23;19993;-47
2022/05/11 04:55:06;;;;;;;1.17;0.32;;;21.90;78.30;;;;;;6254898;23;20006;-47
2022/05/11 04:57:32;;;;;;;2.15;0.80;;;21.80;86.70;;;;;;6244629;23;20004;-47
2022/05/11 04:59:58;;;;;;;1.65;0.50;;;;;;;;;;6255673;23;20003;-47
2022/05/11 05:02:27;;;;;;;1.15;0.60;;;21.70;53.20;;;;;;6246473;22;20008;-50
2022/05/11 05:04:58;;;;;;;3.50;0.55;;;21.60;86.30;;;;;;6256686;23;20004;-51
2022/05/11 05:07:24;;;;;;;1.02;0.60;;;;;;;;;;6246993;23;20330;-53
2022/05/11 05:09:50;;;;;;;2.70;1.00;;;;;;;;;;6256648;23;20007;-54
2022/05/11 05:12:16;;;;;;;1.38;0.60;;;;;;;;;;6246498;23;20014;-54
2022/05/11 05:14:43;;;;;;;1.90;0.55;;;21.80;53.30;;;;;;6256757;23;20028;-51
2022/05/11 05:17:12;;;;;;;1.42;0.60;;;21.70;73.80;;;;;;6246862;23;20388;-54
2022/05/11 05:19:40;;;;;;;1.63;0.70;;;21.80;53.40;;;;;;6246373;23;19999;-52
2022/05/11 05:22:05;;;;;;;1.70;0.50;;;21.90;86.90;;;;;;6246568;23;20423;-52
2022/05/11 05:24:31;;;;;;;1.50;0.73;;;21.80;86.80;;;;;;6246804;23;20067;-54
2022/05/11 05:26:58;;;;;;;2.42;0.68;;;21.70;86.60;;;;;;6256549;23;19996;-53
2022/05/11 05:32:08;;;;;;;1.45;0.68;;;21.80;86.90;;;;;;6246472;23;20054;-55
2022/05/11 05:34:33;;;;;;;1.50;0.50;;;21.40;86.60;;;;;;6256435;23;19996;-54
2022/05/11 05:36:59;;;;;;;3.67;0.70;;;21.90;87.10;;;;;;6256404;23;20032;-55
2022/05/11 05:39:24;;;;;;;1.50;0.63;;;21.60;86.60;;;;;;6256321;23;19996;-55
2022/05/11 05:41:52;;;;;;;2.63;0.80;;;;;;;;;;6246542;23;20000;-54
2022/05/11 05:44:18;;;;;;;1.30;0.50;;;21.70;87.20;;;;;;6246624;23;20004;-54
2022/05/11 05:46:44;;;;;;;1.15;0.50;;;21.80;86.90;;;;;;6246033;23;20444;-54
2022/05/11 05:49:10;;;;;;;0.80;0.47;;;;;;;;;;6246392;23;20004;-53
2022/05/11 05:51:37;;;;;;;0.77;0.50;;;21.70;53.50;;;;;;6256113;23;20008;-54
2022/05/11 05:54:03;;;;;;;2.55;1.00;;;21.80;87.00;;;;;;6246410;23;19996;-52
2022/05/11 05:56:28;;;;;;;2.00;0.80;;;21.70;83.00;;;;;;6256250;23;20301;-53
2022/05/11 05:59:01;;;;;;;1.55;0.50;;;21.70;55.10;;;;;;6255994;23;19992;-54
2022/05/11 06:01:27;;;;;;;1.05;0.57;;;21.70;64.60;;;;;;6246026;22;20074;-50
2022/05/11 06:03:52;;;;;;;2.05;0.90;;;21.70;85.50;;;;;;6255660;23;20024;-55
2022/05/11 06:06:19;;;;;;;1.60;0.57;;;;;;;;;;6255840;23;20004;-55
2022/05/11 06:08:45;;;;;;;2.75;0.68;;;22.20;53.80;;;;;;6245775;23;20008;-55
2022/05/11 06:11:11;;;;;;;8.55;0.60;;;21.70;87.00;;;;;;6255278;23;20008;-57
2022/05/11 06:13:38;;;;;;;1.73;0.52;;;21.70;87.10;;;;;;6255674;23;20000;-53
2022/05/11 06:16:10;;;;;;;1.55;0.43;;;21.90;53.70;;;;;;6245540;23;20423;-56
2022/05/11 06:18:36;;;;;;;1.45;0.57;;;21.50;65.60;;;;;;6245944;23;20372;-56
2022/05/11 06:21:01;;;;;;;4.57;0.80;;;;;;;;;;6255716;23;20035;-56
2022/05/11 06:23:27;;;;;;;2.45;0.50;;;21.50;86.60;;;;;;6255733;23;20092;-55
2022/05/11 06:25:53;;;;;;;0.73;0.45;;;;;;;;;;6255758;23;20423;-55
2022/05/11 06:28:19;;;;;;;3.97;0.70;;;21.80;86.80;;;;;;6255511;23;20305;-55
2022/05/11 06:30:46;;;;;;;1.88;0.60;;;21.70;86.80;;;;;;6245612;23;20019;-56
2022/05/11 06:33:12;;;;;;;4.30;0.60;;;21.80;86.70;;;;;;6255621;23;20327;-56
2022/05/11 06:35:38;;;;;;;1.55;0.57;;;21.80;86.70;;;;;;6255386;23;20007;-54
2022/05/11 06:38:05;;;;;;;3.50;0.55;;;21.70;87.00;;;;;;6255892;23;19999;-56
2022/05/11 06:40:31;;;;;;;3.03;0.80;;;22.00;86.90;;;;;;6255712;23;20011;-57
2022/05/11 06:42:57;;;;;;;1.95;0.65;;;21.90;87.00;;;;;;6255842;23;19992;-56
2022/05/11 06:45:23;;;;;;;3.58;0.60;;;21.90;86.50;;;;;;6255724;23;20006;-55
2022/05/11 06:47:49;;;;;;;2.55;0.70;;;21.80;86.50;;;;;;6255641;23;20024;-54
2022/05/11 06:50:16;;;;;;;6.57;0.75;;;21.50;86.20;;;;;;6255601;23;20009;-54
2022/05/11 06:52:42;;;;;;;1.92;0.55;;;22.00;86.60;;;;;;6245732;23;20077;-53
2022/05/11 07:00:38;;;;;;;1.83;0.60;;;;;;;;;;6255504;23;20046;-53
2022/05/11 07:03:05;;;;;;;1.95;0.77;;;22.10;86.00;;;;;;6255229;22;19993;-54
2022/05/11 07:05:32;;;;;;;1.38;0.55;;;21.90;85.90;;;;;;6245412;23;20072;-53
2022/05/11 07:07:58;;;;;;;3.20;0.70;;;21.70;50.60;;;;;;6245612;23;19993;-55
2022/05/11 07:10:24;;;;;;;5.70;0.85;;;21.90;60.00;;;;;;6255381;23;20004;-56
2022/05/11 07:12:50;;;;;;;1.60;0.45;;;;;;;;;;6255394;23;20055;-55
2022/05/11 07:15:18;;;;;;;2.05;0.70;;;21.80;52.90;;;;;;6255521;23;20083;-55
2022/05/11 07:17:50;;;;;;;4.60;0.80;;;19.00;49.30;;;;;;6255447;23;20324;-53
2022/05/11 07:20:24;;;;;;;6.63;0.90;;;21.80;52.60;;;;;;6255376;23;19997;-56
2022/05/11 07:22:50;;;;;;;3.50;0.50;;;;;;;;;;6255401;23;20589;-55
2022/05/11 07:25:18;;;;;;;6.18;0.98;;;21.90;58.70;;;;;;6245428;23;20004;-56
2022/05/11 07:27:45;;;;;;;3.33;0.65;;;22.00;85.80;;;;;;6255411;23;19996;-57
2022/05/11 07:30:14;;;;;;;2.08;0.60;;;21.80;72.70;;;;;;6255207;23;20316;-55
2022/05/11 07:32:39;;;;;;;4.00;0.60;;;21.90;85.70;;;;;;6255424;23;20321;-56
2022/05/11 07:35:05;;;;;;;3.97;0.60;;;21.80;85.40;;;;;;6255395;23;20020;-56
2022/05/11 07:37:31;;;;;;;1.92;0.65;;;21.80;85.40;;;;;;6245083;23;19996;-54
2022/05/11 07:39:57;;;;;;;1.38;0.60;;;21.90;85.30;;;;;;6255283;23;20003;-54
2022/05/11 07:42:23;;;;;;;2.03;0.52;;;22.00;51.90;;;;;;6245405;23;19996;-55
2022/05/11 07:44:49;;;;;;;4.68;1.00;;;21.70;85.30;;;;;;6255250;23;20024;-56
2022/05/11 07:47:15;;;;;;;2.30;0.63;;;21.90;85.40;;;;;;6255146;23;20019;-56
2022/05/11 07:49:41;;;;;;;1.38;0.60;;;22.20;85.30;;;;;;6255145;23;20004;-56
2022/05/11 07:52:08;;;;;;;2.72;0.60;;;22.10;81.90;;;;;;6245399;23;20071;-56
2022/05/11 07:54:34;;;;;;;8.98;1.13;;;22.10;85.40;;;;;;6255124;23;20035;-56
2022/05/11 07:59:56;;;;;;;1.58;0.55;;;22.10;85.30;;;;;;6255144;23;20163;-56
2022/05/11 08:02:26;;;;;;;2.75;0.82;;;;;;;;;;6255063;22;20000;-56
2022/05/11 08:05:08;;;;;;;3.28;0.63;;;22.20;85.10;;;;;;6244735;23;20052;-55
2022/05/11 08:07:52;;;;;;;5.25;0.95;;;22.00;84.80;;;;;;6255102;23;20075;-55
2022/05/11 08:10:24;;;;;;;2.95;0.60;;;22.10;84.80;;;;;;6244799;23;20423;-56
2022/05/11 08:12:52;;;;;;;2.95;0.70;;;;;;;;;;6244784;23;20000;-55
2022/05/11 08:15:19;;;;;;;1.00;0.38;;;22.00;84.70;;;;;;6255082;23;20000;-56
2022/05/11 08:17:46;;;;;;;4.15;0.60;;;21.80;84.50;;;;;;6254990;23;19996;-55
2022/05/11 08:20:22;;;;;;;3.45;1.05;;;22.10;48.50;;;;;;6244726;23;19996;-56
2022/05/11 08:22:49;;;;;;;3.10;0.63;;;;;;;;;;6255029;23;19997;-56
2022/05/11 08:25:20;;;;;;;2.83;0.63;;;22.10;71.70;;;;;;6245040;23;20066;-56
2022/05/11 08:27:46;;;;;;;2.72;0.93;;;22.20;84.20;;;;;;6245226;23;20367;-56
2022/05/11 08:35:43;;;;;;;2.60;0.70;;;22.20;84.20;;;;;;6256482;23;20512;-56
2022/05/11 08:38:10;;;;;;;1.88;0.68;;;22.30;51.80;;;;;;6256878;23;20000;-56
2022/05/11 08:40:37;;;;;;;3.67;0.68;;;22.20;83.80;;;;;;6247104;23;20068;-56
2022/05/11 08:43:05;;;;;;;1.45;0.55;;;22.10;83.80;;;;;;6257008;23;20335;-55
2022/05/11 08:46:00;;;;;;;3.60;0.85;;;22.30;83.80;;;;;;6257009;23;20007;-55
2022/05/11 08:48:47;;;;;;;2.53;0.60;;;22.60;55.50;;;;;;6257039;23;20004;-56
2022/05/11 08:51:36;;;;;;;4.07;0.57;;;22.40;83.80;;;;;;6246498;23;20008;-56
2022/05/11 08:54:15;;;;;;;2.65;0.60;;;22.60;84.00;;;;;;6246858;23;20031;-56
2022/05/11 08:56:43;;;;;;;2.17;0.50;;;22.60;83.90;;;;;;6247074;23;20000;-56
2022/05/11 08:59:19;;;;;;;2.22;0.57;;;22.40;50.80;;;;;;6256820;23;20023;-56
2022/05/11 09:01:54;;;;;;;3.45;0.60;;;22.50;83.60;;;;;;6246771;22;20000;-56
2022/05/11 09:04:28;;;;;;;0.82;0.40;;;22.80;83.60;;;;;;6246251;23;20004;-56
2022/05/11 09:06:54;;;;;;;3.97;0.70;;;22.70;83.80;;;;;;6256680;23;20004;-56
2022/05/11 09:09:20;;;;;;;8.52;0.50;;;22.60;83.80;;;;;;6246436;23;20066;-56
2022/05/11 09:11:53;;;;;;;3.53;0.77;;;22.50;83.60;;;;;;6256580;23;20012;-56
2022/05/11 09:14:29;;;;;;;2.53;0.57;;;22.40;73.30;;;;;;6256591;23;20000;-55
2022/05/11 09:16:55;;;;;;;2.10;0.40;;;;;;;;;;6256735;23;20000;-56
2022/05/11 09:19:29;;;;;;;2.85;0.40;;;22.70;70.20;;;;;;6229703;23;20371;-56
2022/05/11 09:22:05;;;;;;;4.22;0.82;;;22.70;83.10;;;;;;6256719;23;19997;-55
2022/05/11 09:24:35;;;;;;;4.82;0.80;;;22.80;83.30;;;;;;6246530;23;20014;-56
2022/05/11 09:27:11;;;;;;;4.07;0.60;;;22.50;83.00;;;;;;6246842;23;20003;-56
2022/05/11 09:29:42;;;;;;;3.45;0.70;;;22.90;83.10;;;;;;6256557;23;19992;-55
2022/05/11 09:32:19;;;;;;;1.92;0.70;;;23.10;47.60;;;;;;6246698;23;20083;-55
2022/05/11 09:34:45;;;;;;;4.05;0.75;;;22.50;83.10;;;;;;6256433;23;20024;-55
2022/05/11 09:37:28;;;;;;;3.55;0.88;;;22.70;73.50;;;;;;6256380;23;20002;-56
2022/05/11 09:40:07;;;;;;;7.20;0.90;;;22.50;84.10;;;;;;6256420;23;20500;-56
2022/05/11 09:42:33;;;;;;;3.33;0.80;;;22.80;84.70;;;;;;6246294;23;19997;-56
2022/05/11 09:45:00;;;;;;;3.17;0.90;;;23.00;84.70;;;;;;6256474;23;20047;-56
2022/05/11 09:47:34;;;;;;;6.97;1.05;;;23.30;84.90;;;;;;6255723;23;20007;-56
2022/05/11 09:50:23;;;;;;;2.55;0.55;;;23.20;84.80;;;;;;6256079;23;19993;-56
2022/05/11 09:52:49;;;;;;;3.72;0.98;;;23.10;78.40;;;;;;6245878;23;20027;-56
2022/05/11 09:55:23;;;;;;;5.00;0.77;;;23.20;84.40;;;;;;6256164;23;19996;-56
2022/05/11 09:57:59;;;;;;;3.75;1.00;;;23.30;83.40;;;;;;6256324;23;20003;-56
2022/05/11 10:00:33;;;;;;;3.22;0.80;;;23.20;76.90;;;;;;6245945;23;19992;-56
2022/05/11 10:03:02;;;;;;;3.70;1.00;;;23.40;84.00;;;;;;6246204;22;20001;-55
2022/05/11 10:05:32;;;;;;;2.77;1.20;;;23.30;84.50;;;;;;6245708;23;20015;-56
2022/05/11 10:08:25;;;;;;;5.50;1.38;;;23.20;84.90;;;;;;6256123;23;20239;-56
2022/05/11 10:11:08;;;;;;;6.18;0.93;;;23.20;70.90;;;;;;6256064;23;20018;-56
2022/05/11 10:13:43;;;;;;;3.17;0.85;;;23.00;83.40;;;;;;6255879;23;20003;-56
2022/05/11 10:22:37;;;;;;;2.78;0.82;;;23.60;80.50;;;;;;6247952;23;20015;-56
2022/05/11 10:25:05;;;;;;;3.47;0.80;;;23.60;49.50;;;;;;6255714;23;20457;-56
2022/05/11 10:28:05;;;;;;;2.97;0.77;;;23.30;82.40;;;;;;6255659;23;20327;-55
2022/05/11 10:30:44;;;;;;;4.80;0.70;;;23.30;82.20;;;;;;6245770;23;20012;-55
2022/05/11 10:33:10;;;;;;;1.80;0.40;;;;;;;;;;6255774;23;20000;-56
2022/05/11 10:35:45;;;;;;;5.63;1.08;;;23.50;52.70;;;;;;6255598;23;20281;-56
2022/05/11 10:38:47;;;;;;;2.88;0.70;;;23.60;46.70;;;;;;6245952;23;20082;-55
2022/05/11 10:41:29;;;;;;;6.25;1.20;;;23.30;81.80;;;;;;6255754;23;20508;-56
2022/05/11 10:44:05;;;;;;;6.22;0.77;;;23.40;81.70;;;;;;6255736;23;19996;-56
2022/05/11 10:46:38;;;;;;;3.95;0.95;;;23.50;81.70;;;;;;6255784;23;20027;-56
2022/05/11 10:49:12;;;;;;;2.85;0.88;;;23.70;81.80;;;;;;6245893;23;19997;-54
2022/05/11 10:52:19;;;;;;;6.35;0.93;;;23.50;45.80;;;;;;6255526;23;20035;-55
2022/05/11 10:54:57;;;;;;;2.85;0.68;;;23.00;78.90;;;;;;6255732;23;20000;-56
2022/05/11 10:57:34;;;;;;;5.03;0.70;;;23.50;81.10;;;;;;6255501;23;20000;-57
2022/05/11 11:00:06;;;;;;;5.65;1.00;;;23.50;81.10;;;;;;6255627;23;19992;-56
2022/05/11 11:02:41;;;;;;;4.53;0.80;;;23.50;80.70;;;;;;6245579;22;20015;-57
2022/05/11 11:05:07;;;;;;;2.67;0.52;;;;;;;;;;6255398;23;20050;-57
2022/05/11 11:08:03;;;;;;;3.60;1.00;;;24.00;45.20;;;;;;6245686;23;20008;-54
2022/05/11 11:10:57;;;;;;;4.63;1.00;;;23.20;80.40;;;;;;6255505;23;20004;-56
2022/05/11 11:13:38;;;;;;;3.30;0.88;;;23.40;67.60;;;;;;6255652;23;20029;-55
2022/05/11 11:16:06;;;;;;;6.28;0.80;;;23.80;80.60;;;;;;6255528;23;20059;-56
2022/05/11 11:18:36;;;;;;;3.72;0.85;;;23.30;80.40;;;;;;6255292;23;20003;-56
2022/05/11 11:21:03;;;;;;;5.43;0.90;;;23.70;56.70;;;;;;6255075;23;20035;-56
2022/05/11 11:23:33;;;;;;;3.97;0.85;;;23.60;76.20;;;;;;6245172;23;20324;-56
2022/05/11 11:26:13;;;;;;;3.50;0.77;;;23.40;47.90;;;;;;6255297;23;19992;-56
2022/05/11 11:28:38;;;;;;;;;;;23.60;48.00;;;;;;6229307;23;20050;-56
2022/05/11 11:31:04;;;;;;;4.40;0.82;;;;;;;;;;6255279;23;19986;-57
2022/05/11 11:33:39;;;;;;;6.60;1.10;;;23.60;80.80;;;;;;6245508;23;20001;-56
2022/05/11 11:36:27;;;;;;;3.75;0.70;;;23.50;80.90;;;;;;6245353;23;20028;-56
2022/05/11 11:38:56;;;;;;;1.58;0.60;;;23.40;80.90;;;;;;6255293;23;20387;-55
2022/05/11 11:41:30;;;;;;;6.00;1.08;;;23.70;45.30;;;;;;6218151;23;20477;-56
2022/05/11 11:44:18;;;;;;;4.38;0.90;;;23.70;47.50;;;;;;6255185;23;20004;-56
2022/05/11 11:46:44;;;;;;;3.80;0.95;;;23.30;81.00;;;;;;6225317;23;20015;-56
2022/05/11 11:49:19;;;;;;;1.70;0.55;;;23.70;81.00;;;;;;6255097;23;20011;-56
2022/05/11 11:51:54;;;;;;;2.58;0.65;;;23.90;72.70;;;;;;6255117;23;20008;-55
2022/05/11 11:54:39;;;;;;;2.25;0.80;;;23.80;45.40;;;;;;6255137;23;20011;-56
2022/05/11 11:57:16;;;;;;;1.67;0.73;;;24.00;81.30;;;;;;6245223;23;20004;-55
2022/05/11 11:59:48;;;;;;;4.57;0.88;;;23.40;81.10;;;;;;6245234;23;20004;-56
2022/05/11 12:02:38;;;;;;;3.03;0.70;;;24.00;81.20;;;;;;6244988;22;20327;-56
2022/05/11 12:05:24;;;;;;;4.43;0.70;;;23.70;81.00;;;;;;6254865;23;20011;-56
2022/05/11 12:16:53;;;;;;;3.40;0.80;;;23.90;80.90;;;;;;6254989;23;20401;-57
2022/05/11 12:19:21;;;;;;;4.57;0.80;;;24.10;81.00;;;;;;6245046;23;20007;-56
2022/05/11 12:22:12;;;;;;;3.72;0.95;;;23.80;53.80;;;;;;6254767;23;19999;-56
2022/05/11 12:24:44;;;;;;;3.83;0.55;;;23.80;47.50;;;;;;6244639;23;20565;-57
2022/05/11 12:27:32;;;;;;;2.15;0.52;;;23.80;67.40;;;;;;6244434;23;19993;-55
2022/05/11 12:30:07;;;;;;;0.82;0.50;;;23.40;80.40;;;;;;6243674;23;20004;-56
2022/05/11 12:32:38;;;;;;;3.05;0.55;;;24.00;80.90;;;;;;6254550;23;20042;-56
2022/05/11 12:35:27;;;;;;;4.82;0.57;;;24.00;80.90;;;;;;6244797;23;20268;-56
2022/05/11 12:38:05;;;;;;;3.78;0.73;;;23.90;80.70;;;;;;6244620;23;19996;-56
2022/05/11 12:40:51;;;;;;;5.53;0.80;;;23.90;59.10;;;;;;6245004;23;19997;-56
2022/05/11 12:43:29;;;;;;;4.35;0.80;;;23.80;45.10;;;;;;6254880;23;19996;-55
2022/05/11 12:45:58;;;;;;;2.25;0.73;;;23.90;80.20;;;;;;6244581;23;20011;-56
2022/05/11 12:48:29;;;;;;;3.28;0.63;;;24.10;80.90;;;;;;6245044;23;19996;-55
2022/05/11 12:51:06;;;;;;;4.80;1.00;;;23.90;80.90;;;;;;6254779;23;20435;-56
2022/05/11 12:53:34;;;;;;;2.28;1.02;;;24.10;81.20;;;;;;6244984;23;20010;-56
2022/05/11 12:56:13;;;;;;;4.13;1.00;;;23.80;45.30;;;;;;6254822;23;20003;-56
2022/05/11 12:58:49;;;;;;;2.53;0.90;;;23.90;80.70;;;;;;6244661;23;20000;-56
2022/05/11 13:01:18;;;;;;;3.78;0.90;;;23.60;73.30;;;;;;6254783;22;20071;-56
2022/05/11 13:03:45;;;;;;;2.20;0.77;;;24.00;81.00;;;;;;6244561;23;20075;-56
2022/05/11 13:06:11;;;;;;;3.85;0.98;;;;;;;;;;6254582;23;20000;-56
2022/05/11 13:08:42;;;;;;;1.48;0.80;;;23.80;47.20;;;;;;6244438;23;20439;-53
2022/05/11 13:11:15;;;;;;;2.38;0.85;;;23.90;80.50;;;;;;6254677;23;20012;-56
2022/05/11 13:13:42;;;;;;;4.35;1.23;;;23.80;66.90;;;;;;6254752;23;20483;-55
2022/05/11 13:16:15;;;;;;;4.65;1.30;;;23.80;47.10;;;;;;6254751;23;20051;-56
2022/05/11 13:18:42;;;;;;;6.47;1.05;;;24.00;81.00;;;;;;6254793;23;19993;-55
2022/05/11 13:21:09;;;;;;;5.28;1.10;;;24.00;81.40;;;;;;6255571;23;20000;-57
2022/05/11 13:23:46;;;;;;;5.47;1.23;;;23.90;81.50;;;;;;6256663;23;19999;-56
2022/05/11 13:26:41;;;;;;;5.13;1.20;;;23.90;81.70;;;;;;6246213;23;20482;-56
2022/05/11 13:29:27;;;;;;;4.70;1.17;;;23.70;81.70;;;;;;6256487;23;19992;-56
2022/05/11 13:32:23;;;;;;;3.13;0.95;;;23.70;74.00;;;;;;6256044;23;20008;-56
2022/05/11 13:34:48;;;;;;;7.40;1.30;;;;;;;;;;6245771;23;19996;-55
2022/05/11 13:37:29;;;;;;;5.20;0.90;;;23.90;46.60;;;;;;6256153;23;20070;-55
2022/05/11 13:39:55;;;;;;;4.00;0.90;;;24.00;82.20;;;;;;6245847;23;19996;-56
2022/05/11 13:42:25;;;;;;;7.07;1.10;;;23.80;48.80;;;;;;6246273;23;20415;-56
2022/05/11 13:45:04;;;;;;;4.68;0.93;;;24.00;82.60;;;;;;6246225;23;20008;-55
2022/05/11 13:50:29;;;;;;;4.95;0.88;;;23.30;82.40;;;;;;6256037;23;20019;-55
2022/05/11 13:52:56;;;;;;;3.42;0.88;;;;;;;;;;6255956;23;19997;-55
2022/05/11 13:55:38;;;;;;;2.88;0.90;;;23.90;82.90;;;;;;6255959;23;20073;-56
2022/05/11 13:58:22;;;;;;;4.38;0.98;;;23.80;47.30;;;;;;6255981;23;20000;-56